Adelphia, NJ

11:30 AM EDT on March 31, 2015 (GMT -0400)
Streambank Drive | | Change Station
CLOSE
Current Station
Personal Weather Station
Location: Freehold, NJ
Elevation: 128 ft
Nearby Weather Stations

Elev 128 ft 40.21 °N, 74.24 °W | Updated 52 seconds ago

Partly Cloudy
Partly Cloudy
47.5 °F
Feels Like 46 °F
N
4.0
Wind Variable Wind from SW
Gusts 7.0 mph

Today
High -- | Low -- °F
--% Chance of Precip.
Yesterday
High -- | Low -- °F
Precip. -- in
6:42 AM 7:20 PM
Waxing Gibbous, 87% visible
Pressure 29.86 in
Visibility 10.0 miles
Clouds Mostly Cloudy 8500 ft
Overcast 10000 ft
Windchill 46 °F
Dew Point 29 °F
Humidity 48%
Rainfall 0.00 in
Snow Depth Not available.
UV 2 out of 12
Pollen 6.40 out of 12
Air Quality Not available.
Flu Activity Not available.
METAR KBLM 311515Z AUTO 29006KT 10SM BKN085 OVC100 08/M05 A2986 RMK AO1

More Conditions Fewer Conditions

Pressure 29.86 in
Visibility 10.0 miles
Clouds Mostly Cloudy 8500 ft
Overcast 10000 ft
Windchill 46 °F
Dew Point 29 °F
Humidity 48%
Rainfall 0.00 in
Snow Depth Not available.
UV 2 out of 12
Pollen 6.40 out of 12
Air Quality Not available.
Flu Activity Not available.
METAR KBLM 311515Z AUTO 29006KT 10SM BKN085 OVC100 08/M05 A2986 RMK AO1

More Conditions Fewer Conditions

10-Day Weather Forecast

Almanac

Astronomy

Mar. 31, 2015 Rise Set
Actual Time
Civil Twilight
Nautical Twilight
Astronomical Twilight
Moon
Length of Visible Light
Length of Day
Tomorrow will be .
, % of the Moon is Illuminated

Today's Extremes

State Highs State Lows

Community

WunderPhotos

Upload Photos

1,809,781 photos uploaded!

WunderBlogs® & News

Nearby

Air Quality

  Air Quality AQ Index Pollutant
Not available.

Snow Depth

Station Depth Elevation

Earthquake Activity

City Distance Mag. Time & Date
Minimum magnitude displayed is 2.5.

Coastal Water Temperatures

Place Temperature

Stations

Nearby Weather Stations

Station Location Temp. Windchill Dew Point Humidity Wind Precip. Elev Updated Type